createdAt,value
2018-07-09T00:00:35.161Z,20.35
2018-07-09T00:01:35.160Z,20.38
2018-07-09T00:02:35.168Z,20.34
2018-07-09T00:03:35.201Z,20.15
2018-07-09T00:04:35.167Z,20.08
2018-07-09T00:05:35.172Z,20.12
2018-07-09T00:06:35.181Z,19.95
2018-07-09T00:07:35.176Z,19.86
2018-07-09T00:08:35.179Z,19.90
2018-07-09T00:09:35.196Z,19.86
2018-07-09T00:10:35.189Z,19.79
2018-07-09T00:11:35.187Z,20.24
2018-07-09T00:12:35.188Z,20.03
2018-07-09T00:13:35.202Z,20.03
2018-07-09T00:14:35.227Z,20.24
2018-07-09T00:15:35.226Z,19.83
2018-07-09T00:16:35.247Z,19.88
2018-07-09T00:17:35.202Z,19.79
2018-07-09T00:18:35.208Z,19.86
2018-07-09T00:19:35.211Z,19.87
2018-07-09T00:20:35.242Z,20.20
2018-07-09T00:21:35.220Z,19.95
2018-07-09T00:22:35.219Z,19.97
2018-07-09T00:23:35.223Z,19.55
2018-07-09T00:24:35.223Z,19.87
2018-07-09T00:25:35.229Z,19.91
2018-07-09T00:26:35.234Z,19.55
2018-07-09T00:27:35.236Z,19.54
2018-07-09T00:28:35.237Z,18.77
2018-07-09T00:29:35.263Z,19.25
2018-07-09T00:30:35.253Z,19.43
2018-07-09T00:31:35.248Z,19.38
2018-07-09T00:32:35.248Z,19.35
2018-07-09T00:33:35.256Z,19.28
2018-07-09T00:34:35.266Z,19.36
2018-07-09T00:35:43.903Z,19.51
2018-07-09T00:37:28.783Z,19.33
2018-07-09T00:38:28.671Z,19.33
2018-07-09T00:39:28.672Z,19.32
2018-07-09T00:40:28.675Z,19.42
2018-07-09T00:41:28.738Z,19.54
2018-07-09T00:42:28.679Z,19.48
2018-07-09T00:43:28.681Z,19.32
2018-07-09T00:44:28.683Z,19.66
2018-07-09T00:45:28.794Z,19.54
2018-07-09T00:46:28.712Z,19.38
2018-07-09T00:47:28.694Z,19.58
2018-07-09T00:48:28.690Z,19.53
2018-07-09T00:49:28.727Z,19.50
2018-07-09T00:50:28.714Z,19.38
2018-07-09T00:51:28.702Z,19.57
2018-07-09T00:52:28.708Z,19.54
2018-07-09T00:53:28.764Z,19.39
2018-07-09T00:54:28.721Z,19.36
2018-07-09T00:55:28.736Z,19.35
2018-07-09T00:56:28.714Z,19.42
2018-07-09T00:57:28.842Z,19.38
2018-07-09T00:58:28.727Z,19.40
2018-07-09T00:59:28.733Z,19.38
2018-07-09T01:00:28.732Z,19.53
2018-07-09T01:01:28.751Z,19.58
2018-07-09T01:02:28.795Z,19.54
2018-07-09T01:03:28.742Z,19.54
2018-07-09T01:04:28.745Z,19.60
2018-07-09T01:05:28.797Z,19.75
2018-07-09T01:06:28.748Z,19.01
2018-07-09T01:07:28.755Z,19.20
2018-07-09T01:08:28.758Z,19.43
2018-07-09T01:09:28.794Z,19.36
2018-07-09T01:10:28.761Z,19.58
2018-07-09T01:11:28.791Z,19.60
2018-07-09T01:12:28.768Z,19.93
2018-07-09T01:13:28.772Z,20.34
2018-07-09T01:14:28.783Z,19.33
2018-07-09T01:15:28.779Z,19.36
2018-07-09T01:16:28.778Z,19.54
2018-07-09T01:17:28.782Z,19.95
2018-07-09T01:18:28.777Z,19.35
2018-07-09T01:19:28.792Z,19.32
2018-07-09T01:20:28.872Z,19.43
2018-07-09T01:21:28.806Z,19.90
2018-07-09T01:22:28.792Z,20.18
2018-07-09T01:23:28.797Z,19.72
2018-07-09T01:24:28.795Z,19.54
2018-07-09T01:25:37.447Z,19.48
2018-07-09T01:27:22.297Z,19.46
2018-07-09T01:28:22.229Z,19.36
2018-07-09T01:29:22.198Z,19.15
2018-07-09T01:30:22.207Z,19.24
2018-07-09T01:31:22.201Z,19.54
2018-07-09T01:32:22.225Z,19.32
2018-07-09T01:33:22.226Z,19.51
2018-07-09T01:34:22.216Z,19.36
2018-07-09T01:35:22.243Z,19.38
2018-07-09T01:36:22.219Z,19.36
2018-07-09T01:37:22.220Z,19.28
2018-07-09T01:38:22.251Z,19.08
2018-07-09T01:39:22.230Z,19.23
2018-07-09T01:40:22.224Z,19.72
2018-07-09T01:41:22.232Z,19.60
2018-07-09T01:42:22.243Z,19.35
2018-07-09T01:43:22.240Z,19.35
2018-07-09T01:44:22.243Z,19.72
2018-07-09T01:45:22.259Z,19.70
2018-07-09T01:46:22.242Z,19.51
2018-07-09T01:47:22.253Z,18.87
2018-07-09T01:48:22.295Z,19.06
2018-07-09T01:49:22.242Z,19.24
2018-07-09T01:50:22.250Z,19.36
2018-07-09T01:51:22.253Z,18.84
2018-07-09T01:52:22.257Z,18.57
2018-07-09T01:53:22.256Z,18.27
2018-07-09T01:54:22.261Z,18.10
2018-07-09T01:55:22.266Z,18.57
2018-07-09T01:56:22.258Z,19.24
2018-07-09T01:57:22.265Z,19.06
2018-07-09T01:58:22.264Z,18.58
2018-07-09T01:59:22.272Z,18.67
2018-07-09T02:00:22.274Z,18.67
2018-07-09T02:01:22.273Z,18.59
2018-07-09T02:02:22.275Z,18.86
2018-07-09T02:03:22.278Z,18.64
2018-07-09T02:04:22.288Z,19.10
2018-07-09T02:05:22.279Z,18.59
2018-07-09T02:06:22.288Z,18.34
2018-07-09T02:07:22.294Z,18.97
2018-07-09T02:08:22.298Z,18.24
2018-07-09T02:09:22.289Z,18.43
2018-07-09T02:10:22.302Z,18.17
2018-07-09T02:11:22.294Z,18.36
2018-07-09T02:12:22.306Z,18.43
2018-07-09T02:13:22.296Z,18.73
2018-07-09T02:14:22.297Z,18.59
2018-07-09T02:15:22.295Z,18.28
2018-07-09T02:16:22.310Z,18.29
2018-07-09T02:17:22.307Z,18.37
2018-07-09T02:18:22.305Z,18.58
2018-07-09T02:19:22.312Z,18.22
2018-07-09T02:20:22.344Z,18.12
2018-07-09T02:21:22.308Z,18.65
2018-07-09T02:22:22.315Z,18.15
2018-07-09T02:23:22.318Z,18.39
2018-07-09T02:24:22.322Z,18.10
2018-07-09T02:25:22.319Z,18.03
2018-07-09T02:26:22.326Z,18.07
2018-07-09T02:27:22.320Z,18.00
2018-07-09T02:28:22.329Z,17.97
2018-07-09T02:29:22.336Z,18.00
2018-07-09T02:30:22.336Z,18.12
2018-07-09T02:31:22.350Z,18.59
2018-07-09T02:32:22.338Z,18.83
2018-07-09T02:33:22.333Z,19.01
2018-07-09T02:34:22.342Z,18.62
2018-07-09T02:35:22.340Z,18.37
2018-07-09T02:36:22.373Z,18.73
2018-07-09T02:37:22.366Z,18.86
2018-07-09T02:38:22.342Z,18.61
2018-07-09T02:39:22.345Z,18.54
2018-07-09T02:40:22.350Z,18.04
2018-07-09T02:41:22.356Z,17.73
2018-07-09T02:42:22.350Z,17.81
2018-07-09T02:43:22.359Z,18.00
2018-07-09T02:44:22.362Z,17.82
2018-07-09T02:45:22.362Z,17.55
2018-07-09T02:46:22.370Z,17.66
2018-07-09T02:47:22.378Z,17.85
2018-07-09T02:48:22.363Z,18.18
2018-07-09T02:49:22.367Z,17.95
2018-07-09T02:50:22.372Z,17.59
2018-07-09T02:51:22.371Z,17.79
2018-07-09T02:52:22.372Z,17.74
2018-07-09T02:53:22.373Z,18.29
2018-07-09T02:54:22.376Z,17.78
2018-07-09T02:55:22.372Z,18.04
2018-07-09T02:56:22.377Z,17.88
2018-07-09T02:57:22.422Z,17.64
2018-07-09T02:58:22.383Z,17.30
2018-07-09T03:17:56.902Z,17.33
2018-07-09T03:18:56.911Z,17.30
2018-07-09T03:19:56.884Z,17.14
2018-07-09T03:20:56.876Z,17.20
2018-07-09T03:21:56.878Z,17.66
2018-07-09T03:22:56.870Z,17.44
2018-07-09T03:23:56.881Z,17.78
2018-07-09T03:24:56.879Z,17.97
2018-07-09T03:25:56.896Z,17.57
2018-07-09T03:26:56.871Z,17.29
2018-07-09T03:27:56.889Z,16.81
2018-07-09T03:28:56.873Z,16.78
2018-07-09T03:29:56.874Z,16.92
2018-07-09T03:30:56.880Z,17.15
2018-07-09T03:31:56.887Z,17.33
2018-07-09T03:32:56.881Z,17.47
2018-07-09T03:33:56.883Z,17.08
2018-07-09T03:34:56.867Z,16.96
2018-07-09T03:35:56.875Z,17.73
2018-07-09T03:36:56.877Z,17.28
2018-07-09T03:37:56.893Z,17.40
2018-07-09T03:38:56.890Z,17.10
2018-07-09T03:39:56.890Z,17.17
2018-07-09T03:40:56.886Z,17.88
2018-07-09T03:41:56.906Z,17.32
2018-07-09T03:42:56.895Z,17.26
2018-07-09T03:43:56.880Z,17.14
2018-07-09T03:44:56.882Z,17.32
2018-07-09T03:45:56.892Z,17.78
2018-07-09T03:46:56.892Z,17.54
2018-07-09T03:47:56.889Z,17.43
2018-07-09T03:48:56.899Z,17.25
2018-07-09T03:49:56.894Z,17.14
2018-07-09T03:50:56.889Z,17.00
2018-07-09T03:51:56.887Z,17.33
2018-07-09T03:52:56.919Z,17.15
2018-07-09T03:53:56.912Z,16.90
2018-07-09T03:54:56.959Z,16.96
2018-07-09T03:55:56.920Z,16.93
2018-07-09T03:56:56.901Z,16.90
2018-07-09T03:57:56.909Z,16.73
2018-07-09T03:58:56.937Z,16.67
2018-07-09T03:59:56.924Z,16.96
2018-07-09T04:00:56.939Z,16.44
2018-07-09T04:01:56.933Z,16.96
2018-07-09T04:02:57.015Z,16.77
2018-07-09T04:03:56.927Z,16.58
2018-07-09T04:04:56.956Z,16.37
2018-07-09T04:05:56.907Z,16.18
2018-07-09T04:06:56.914Z,16.12
2018-07-09T04:07:56.952Z,16.25
2018-07-09T04:08:56.907Z,16.73
2018-07-09T04:09:56.980Z,16.86
2018-07-09T04:10:56.949Z,16.89
2018-07-09T04:11:56.931Z,16.86
2018-07-09T04:12:56.918Z,16.86
2018-07-09T04:13:56.919Z,17.11
2018-07-09T04:14:56.913Z,16.73
2018-07-09T04:15:56.936Z,16.70
2018-07-09T04:16:56.964Z,16.78
2018-07-09T04:17:56.927Z,16.83
2018-07-09T04:18:56.956Z,16.86
2018-07-09T04:19:56.971Z,16.89
2018-07-09T04:20:56.959Z,16.90
2018-07-09T04:21:56.980Z,16.96
2018-07-09T04:22:56.926Z,16.88
2018-07-09T04:23:56.924Z,16.88
2018-07-09T04:24:56.955Z,16.92
2018-07-09T04:25:56.942Z,16.88
2018-07-09T04:26:56.951Z,16.81
2018-07-09T04:27:56.926Z,17.32
2018-07-09T04:28:56.939Z,17.15
2018-07-09T04:29:56.963Z,17.22
2018-07-09T04:30:56.996Z,17.26
2018-07-09T04:31:57.014Z,17.32
2018-07-09T04:32:56.958Z,17.38
2018-07-09T04:33:57.086Z,17.55
2018-07-09T04:34:56.970Z,17.64
2018-07-09T04:35:56.937Z,17.74
2018-07-09T04:36:56.960Z,17.74
2018-07-09T04:37:57.005Z,17.79
2018-07-09T04:38:56.955Z,17.64
2018-07-09T04:39:56.953Z,17.59
2018-07-09T04:40:56.961Z,17.82
2018-07-09T04:41:56.960Z,18.43
2018-07-09T04:42:56.966Z,18.31
2018-07-09T04:43:56.996Z,18.39
2018-07-09T04:44:57.166Z,18.06
2018-07-09T04:45:56.978Z,17.84
2018-07-09T04:46:56.981Z,17.95
2018-07-09T04:47:56.984Z,18.21
2018-07-09T04:48:56.988Z,18.29
2018-07-09T04:49:56.999Z,18.43
2018-07-09T04:50:57.023Z,18.58
2018-07-09T04:51:57.015Z,18.73
2018-07-09T04:52:57.018Z,18.82
2018-07-09T04:53:57.033Z,18.94
2018-07-09T04:54:57.039Z,18.99
2018-07-09T04:55:57.045Z,19.25
2018-07-09T04:56:57.060Z,19.33
2018-07-09T04:57:57.087Z,19.17
2018-07-09T04:58:57.081Z,19.36
2018-07-09T04:59:57.134Z,19.42
2018-07-09T05:00:57.107Z,19.54
2018-07-09T05:01:57.120Z,19.76
2018-07-09T05:02:57.140Z,19.79
2018-07-09T05:03:57.164Z,19.90
2018-07-09T05:04:57.184Z,20.12
2018-07-09T05:05:57.179Z,20.13
2018-07-09T05:06:57.183Z,20.33
2018-07-09T05:07:57.200Z,20.62
2018-07-09T05:08:57.216Z,20.84
2018-07-09T05:09:57.240Z,21.19
2018-07-09T05:10:57.245Z,21.29
2018-07-09T05:11:57.265Z,21.11
2018-07-09T05:12:57.345Z,21.27
2018-07-09T05:13:57.306Z,21.63
2018-07-09T05:14:57.316Z,22.02
2018-07-09T05:15:57.345Z,21.88
2018-07-09T05:16:57.373Z,21.79
2018-07-09T05:17:57.371Z,21.75
2018-07-09T05:18:57.386Z,22.34
2018-07-09T05:19:57.404Z,22.53
2018-07-09T05:20:57.427Z,23.04
2018-07-09T05:21:57.450Z,23.39
2018-07-09T05:22:57.487Z,23.20
2018-07-09T05:23:57.481Z,23.23
2018-07-09T05:24:57.504Z,23.43
2018-07-09T05:25:57.515Z,23.55
2018-07-09T05:26:57.541Z,23.87
2018-07-09T05:27:57.562Z,23.90
2018-07-09T05:28:57.636Z,24.07
2018-07-09T05:29:57.610Z,24.22
2018-07-09T05:30:57.617Z,24.20
2018-07-09T05:32:07.020Z,24.35
2018-07-09T05:34:00.135Z,24.64
2018-07-09T05:34:51.094Z,24.71
2018-07-09T05:35:51.115Z,24.69
2018-07-09T05:36:51.135Z,24.87
2018-07-09T05:37:51.160Z,25.28
2018-07-09T05:38:51.180Z,25.64
2018-07-09T05:39:51.208Z,25.71
2018-07-09T05:40:51.225Z,25.71
2018-07-09T05:41:51.252Z,25.42
2018-07-09T05:42:51.270Z,25.47
2018-07-09T05:43:51.297Z,25.94
2018-07-09T05:44:51.313Z,26.29
2018-07-09T05:45:51.343Z,26.40
2018-07-09T05:46:51.365Z,25.94
2018-07-09T05:47:51.391Z,25.64
2018-07-09T05:49:00.059Z,25.05
2018-07-09T05:50:44.871Z,26.04
2018-07-09T05:51:44.894Z,26.69
2018-07-09T05:52:44.898Z,26.99
2018-07-09T05:53:44.927Z,26.86
2018-07-09T05:54:44.953Z,27.05
2018-07-09T05:55:44.972Z,27.14
2018-07-09T05:56:44.996Z,27.28
2018-07-09T05:57:45.024Z,26.24
2018-07-09T05:58:45.042Z,25.98
2018-07-09T05:59:45.073Z,26.62
2018-07-09T06:00:45.106Z,26.62
2018-07-09T06:01:45.120Z,27.19
2018-07-09T06:02:45.147Z,27.73
2018-07-09T06:03:45.169Z,27.64
2018-07-09T06:04:45.195Z,27.47
2018-07-09T06:05:45.227Z,26.67
2018-07-09T06:06:45.284Z,26.67
2018-07-09T06:07:45.276Z,27.59
2018-07-09T06:08:45.329Z,28.10
2018-07-09T06:09:45.362Z,28.85
2018-07-09T06:10:45.355Z,29.19
2018-07-09T06:11:45.380Z,28.51
2018-07-09T06:12:45.412Z,27.82
2018-07-09T06:13:45.420Z,27.09
2018-07-09T06:14:45.448Z,27.06
2018-07-09T06:15:45.510Z,27.69
2018-07-09T06:18:06.614Z,27.85
2018-07-09T06:19:06.624Z,28.70
2018-07-09T06:21:00.150Z,29.31
2018-07-09T06:22:00.088Z,29.13
2018-07-09T06:23:00.409Z,29.26
2018-07-09T06:24:00.159Z,28.85
2018-07-09T06:25:00.149Z,28.26
2018-07-09T06:26:00.171Z,27.64
2018-07-09T06:27:00.182Z,26.58
2018-07-09T06:28:00.215Z,26.22
2018-07-09T06:29:00.229Z,26.31
2018-07-09T06:30:00.240Z,26.05
2018-07-09T06:31:00.249Z,25.83
2018-07-09T06:32:00.265Z,25.86
2018-07-09T06:33:00.279Z,25.83
2018-07-09T06:34:00.309Z,25.68
2018-07-09T06:35:00.320Z,25.34
2018-07-09T06:36:00.335Z,25.25
2018-07-09T06:37:00.394Z,25.37
2018-07-09T06:38:00.357Z,25.49
2018-07-09T06:39:00.364Z,25.22
2018-07-09T06:40:00.375Z,25.22
2018-07-09T06:41:00.396Z,25.13
2018-07-09T06:42:00.404Z,24.94
2018-07-09T06:43:00.420Z,24.79
2018-07-09T06:44:00.425Z,24.83
2018-07-09T06:45:00.438Z,24.90
2018-07-09T06:46:00.451Z,24.94
2018-07-09T06:47:00.460Z,24.82
2018-07-09T06:48:00.476Z,24.56
2018-07-09T06:49:00.497Z,24.68
2018-07-09T06:50:00.544Z,24.67
2018-07-09T06:52:21.602Z,24.23
2018-07-09T06:53:21.584Z,24.00
2018-07-09T06:54:21.586Z,23.76
2018-07-09T06:55:21.593Z,23.90
2018-07-09T06:56:21.604Z,23.98
2018-07-09T06:57:21.612Z,23.98
2018-07-09T06:58:21.630Z,23.94
2018-07-09T07:00:42.681Z,24.20
2018-07-09T07:01:42.684Z,23.89
2018-07-09T07:02:42.681Z,24.05
2018-07-09T07:03:42.693Z,24.05
2018-07-09T07:04:42.697Z,23.97
2018-07-09T07:05:42.711Z,23.80
2018-07-09T07:06:42.715Z,23.86
2018-07-09T07:07:42.725Z,23.92
2018-07-09T07:08:42.770Z,23.92
2018-07-09T07:09:42.742Z,23.71
2018-07-09T07:10:42.750Z,23.72
2018-07-09T07:11:42.765Z,23.52
2018-07-09T07:12:42.761Z,23.49
2018-07-09T07:13:42.772Z,23.90
2018-07-09T07:14:42.776Z,23.53
2018-07-09T07:15:42.784Z,23.49
2018-07-09T07:16:42.800Z,23.71
2018-07-09T07:17:42.801Z,23.82
2018-07-09T07:18:42.813Z,23.87
2018-07-09T07:19:42.819Z,23.79
2018-07-09T07:20:42.822Z,23.82
2018-07-09T07:21:42.858Z,23.75
2018-07-09T07:22:42.843Z,23.70
2018-07-09T07:23:42.848Z,23.71
2018-07-09T07:24:42.863Z,23.76
2018-07-09T07:25:42.862Z,23.82
2018-07-09T07:26:42.882Z,23.79
2018-07-09T07:27:42.880Z,23.92
2018-07-09T07:28:42.887Z,23.80
2018-07-09T07:29:42.890Z,23.65
2018-07-09T07:30:42.902Z,23.77
2018-07-09T07:31:42.913Z,23.79
2018-07-09T07:32:42.940Z,23.72
2018-07-09T07:33:42.925Z,23.85
2018-07-09T07:34:42.941Z,23.75
2018-07-09T07:35:42.951Z,23.75
2018-07-09T07:36:51.591Z,23.79
2018-07-09T07:38:36.378Z,23.77
2018-07-09T07:39:36.351Z,23.52
2018-07-09T07:40:36.359Z,23.50
2018-07-09T07:41:36.367Z,23.61
2018-07-09T07:42:36.380Z,23.50
2018-07-09T07:43:36.384Z,23.62
2018-07-09T07:44:36.392Z,23.58
2018-07-09T07:45:36.395Z,23.62
2018-07-09T07:46:36.395Z,23.80
2018-07-09T07:47:36.406Z,23.83
2018-07-09T07:48:36.417Z,23.77
2018-07-09T07:49:36.420Z,23.94
2018-07-09T07:50:36.611Z,23.71
2018-07-09T07:51:36.439Z,23.76
2018-07-09T07:52:36.439Z,23.75
2018-07-09T07:53:36.449Z,23.43
2018-07-09T07:54:36.456Z,23.46
2018-07-09T07:55:36.461Z,23.52
2018-07-09T07:56:36.474Z,23.52
2018-07-09T07:57:36.477Z,23.61
2018-07-09T07:58:36.481Z,23.53
2018-07-09T07:59:36.490Z,23.60
2018-07-09T08:00:36.496Z,23.71
2018-07-09T08:01:36.498Z,23.68
2018-07-09T08:02:36.510Z,23.72
2018-07-09T08:03:36.518Z,23.77
2018-07-09T08:04:36.522Z,23.70
2018-07-09T08:05:36.530Z,23.83
2018-07-09T08:06:36.536Z,23.75
2018-07-09T08:07:36.550Z,23.85
2018-07-09T08:08:36.550Z,23.85
2018-07-09T08:09:36.614Z,23.79
2018-07-09T08:10:36.563Z,23.83
2018-07-09T08:11:48.553Z,23.76
2018-07-09T08:13:36.652Z,23.85
2018-07-09T08:14:36.594Z,23.76
2018-07-09T08:15:36.685Z,23.71
2018-07-09T08:16:36.600Z,23.65
2018-07-09T08:17:36.611Z,23.76
2018-07-09T08:18:36.613Z,23.72
2018-07-09T08:19:36.626Z,23.76
2018-07-09T08:20:36.625Z,23.98
2018-07-09T08:21:36.635Z,23.98
2018-07-09T08:22:36.641Z,23.83
2018-07-09T08:23:36.654Z,23.94
2018-07-09T08:24:36.671Z,23.83
2018-07-09T08:25:36.789Z,23.85
2018-07-09T08:26:36.673Z,23.83
2018-07-09T08:27:36.710Z,23.87
2018-07-09T08:28:36.685Z,24.01
2018-07-09T08:29:36.696Z,23.92
2018-07-09T08:30:45.953Z,24.14
2018-07-09T08:32:30.124Z,24.13
2018-07-09T08:33:30.117Z,24.12
2018-07-09T08:34:30.117Z,24.10
2018-07-09T08:35:30.123Z,24.10
2018-07-09T08:36:30.123Z,24.13
2018-07-09T08:38:52.227Z,24.26
2018-07-09T08:39:52.211Z,24.27
2018-07-09T08:40:52.216Z,24.10
2018-07-09T08:41:52.223Z,24.05
2018-07-09T08:42:52.233Z,24.05
2018-07-09T08:43:52.231Z,24.23
2018-07-09T08:44:52.238Z,24.22
2018-07-09T08:45:52.294Z,24.19
2018-07-09T08:46:52.317Z,24.34
2018-07-09T08:47:52.275Z,24.23
2018-07-09T08:48:52.271Z,24.32
2018-07-09T08:49:52.274Z,24.59
2018-07-09T08:50:52.281Z,24.38
2018-07-09T08:51:52.290Z,24.35
2018-07-09T08:52:52.290Z,24.41
2018-07-09T08:53:52.301Z,24.38
2018-07-09T08:54:52.308Z,24.19
2018-07-09T08:55:52.317Z,24.22
2018-07-09T08:56:52.322Z,24.19
2018-07-09T08:57:52.323Z,24.38
2018-07-09T08:58:52.346Z,24.50
2018-07-09T08:59:52.339Z,24.39
2018-07-09T09:00:52.366Z,24.53
2018-07-09T09:01:52.404Z,24.49
2018-07-09T09:02:52.367Z,24.31
2018-07-09T09:03:52.409Z,24.37
2018-07-09T09:04:52.373Z,24.41
2018-07-09T09:05:52.486Z,24.35
2018-07-09T09:06:52.402Z,24.49
2018-07-09T09:07:52.388Z,24.60
2018-07-09T09:08:52.393Z,24.69
2018-07-09T09:09:52.413Z,24.67
2018-07-09T09:10:52.416Z,24.52
2018-07-09T09:11:52.415Z,24.42
2018-07-09T09:12:52.425Z,24.60
2018-07-09T09:13:52.432Z,24.57
2018-07-09T09:14:52.439Z,24.53
2018-07-09T09:15:52.445Z,24.56
2018-07-09T09:16:52.455Z,24.64
2018-07-09T09:17:52.460Z,24.59
2018-07-09T09:18:52.467Z,24.54
2018-07-09T09:19:52.469Z,24.79
2018-07-09T09:20:52.478Z,24.80
2018-07-09T09:21:52.480Z,24.73
2018-07-09T09:22:52.496Z,24.79
2018-07-09T09:23:52.499Z,24.68
2018-07-09T09:24:52.505Z,24.61
2018-07-09T09:25:52.515Z,24.75
2018-07-09T09:26:52.521Z,24.75
2018-07-09T09:27:52.526Z,24.88
2018-07-09T09:28:52.527Z,24.97
2018-07-09T09:29:52.540Z,24.94
2018-07-09T09:30:52.544Z,24.98
2018-07-09T09:31:52.551Z,24.85
2018-07-09T09:32:52.563Z,24.69
2018-07-09T09:33:52.581Z,24.85
2018-07-09T09:34:52.577Z,24.95
2018-07-09T09:35:52.584Z,24.91
2018-07-09T09:36:52.605Z,25.13
2018-07-09T09:37:52.608Z,25.07
2018-07-09T09:38:52.599Z,25.02
2018-07-09T09:39:52.605Z,25.05
2018-07-09T09:40:52.610Z,25.01
2018-07-09T09:41:52.613Z,25.00
2018-07-09T09:42:52.628Z,24.97
2018-07-09T09:43:52.628Z,24.98
2018-07-09T09:44:52.655Z,25.07
2018-07-09T09:45:52.647Z,25.09
2018-07-09T09:46:52.656Z,25.05
2018-07-09T09:47:52.659Z,24.97
2018-07-09T09:48:52.669Z,25.07
2018-07-09T09:49:52.674Z,25.12
2018-07-09T09:50:52.697Z,24.92
2018-07-09T09:51:52.694Z,24.95
2018-07-09T09:52:52.700Z,24.97
2018-07-09T09:53:52.699Z,24.98
2018-07-09T09:54:52.714Z,25.00
2018-07-09T09:55:52.711Z,24.94
2018-07-09T09:56:52.722Z,24.88
2018-07-09T09:57:52.723Z,25.00
2018-07-09T09:58:52.732Z,25.31
2018-07-09T09:59:52.740Z,25.35
2018-07-09T10:00:52.743Z,25.35
2018-07-09T10:01:52.754Z,25.44
2018-07-09T10:02:52.762Z,25.25
2018-07-09T10:03:52.769Z,25.37
2018-07-09T10:04:52.780Z,25.32
2018-07-09T10:05:52.784Z,25.16
2018-07-09T10:06:52.786Z,25.09
2018-07-09T10:07:52.796Z,25.05
2018-07-09T10:08:52.801Z,25.19
2018-07-09T10:09:52.805Z,25.07
2018-07-09T10:10:52.815Z,25.32
2018-07-09T10:11:52.824Z,25.30
2018-07-09T10:12:52.828Z,25.42
2018-07-09T10:13:52.849Z,25.38
2018-07-09T10:14:52.842Z,25.39
2018-07-09T10:15:52.850Z,25.22
2018-07-09T10:16:52.893Z,25.34
2018-07-09T10:17:52.865Z,25.54
2018-07-09T10:18:52.875Z,25.49
2018-07-09T10:19:52.878Z,25.52
2018-07-09T10:20:52.880Z,25.35
2018-07-09T10:21:52.896Z,25.35
2018-07-09T10:22:52.992Z,25.38
2018-07-09T10:23:52.899Z,25.39
2018-07-09T10:24:52.916Z,25.32
2018-07-09T10:25:52.920Z,25.42
2018-07-09T10:26:52.927Z,25.54
2018-07-09T10:27:52.968Z,25.32
2018-07-09T10:28:52.957Z,25.30
2018-07-09T10:29:52.948Z,25.34
2018-07-09T10:30:52.956Z,25.30
2018-07-09T10:31:52.963Z,25.19
2018-07-09T10:32:52.974Z,25.27
2018-07-09T10:33:52.976Z,25.28
2018-07-09T10:34:52.981Z,25.20
2018-07-09T10:35:52.986Z,25.31
2018-07-09T10:36:53.050Z,25.28
2018-07-09T10:37:53.005Z,25.13
2018-07-09T10:38:53.011Z,25.22
2018-07-09T10:39:53.036Z,25.22
2018-07-09T10:40:53.022Z,25.17
2018-07-09T10:41:53.027Z,25.22
2018-07-09T10:42:53.037Z,25.38
2018-07-09T10:43:53.048Z,25.52
2018-07-09T10:44:53.076Z,25.50
2018-07-09T10:45:53.056Z,25.68
2018-07-09T10:46:53.074Z,25.77
2018-07-09T10:47:53.076Z,25.57
2018-07-09T10:48:53.078Z,25.46
2018-07-09T10:49:53.116Z,25.32
2018-07-09T10:50:53.094Z,25.37
2018-07-09T10:51:53.121Z,25.35
2018-07-09T10:52:53.106Z,25.47
2018-07-09T10:53:53.109Z,25.57
2018-07-09T10:54:53.153Z,25.53
2018-07-09T10:55:53.140Z,25.34
2018-07-09T10:56:53.146Z,25.57
2018-07-09T10:57:53.157Z,25.47
2018-07-09T10:58:53.158Z,25.25
2018-07-09T10:59:53.197Z,25.46
2018-07-09T11:00:53.253Z,25.67
2018-07-09T11:01:53.194Z,25.49
2018-07-09T11:02:53.177Z,25.49
2018-07-09T11:03:53.192Z,25.47
2018-07-09T11:04:53.205Z,25.65
2018-07-09T11:05:53.229Z,25.77
2018-07-09T11:06:53.209Z,25.69
2018-07-09T11:07:53.228Z,25.64
2018-07-09T11:08:53.225Z,25.52
2018-07-09T11:09:53.232Z,25.69
2018-07-09T11:10:53.235Z,25.64
2018-07-09T11:11:53.268Z,25.57
2018-07-09T11:12:53.294Z,25.62
2018-07-09T11:14:01.956Z,25.56
2018-07-09T11:15:46.688Z,25.37
2018-07-09T11:16:46.689Z,25.34
2018-07-09T11:17:46.698Z,25.49
2018-07-09T11:18:46.716Z,26.01
2018-07-09T11:19:46.692Z,25.86
2018-07-09T11:20:46.745Z,25.64
2018-07-09T11:21:46.710Z,25.54
2018-07-09T11:22:46.717Z,25.44
2018-07-09T11:23:46.725Z,25.46
2018-07-09T11:24:46.730Z,25.69
2018-07-09T11:25:46.801Z,25.65
2018-07-09T11:26:46.738Z,25.57
2018-07-09T11:27:46.776Z,25.72
2018-07-09T11:28:46.763Z,25.67
2018-07-09T11:29:46.767Z,25.74
2018-07-09T11:30:46.769Z,25.59
2018-07-09T11:31:46.790Z,25.44
2018-07-09T11:32:46.783Z,25.54
2018-07-09T11:33:46.799Z,25.57
2018-07-09T11:34:46.809Z,25.62
2018-07-09T11:35:46.871Z,25.49
2018-07-09T11:36:46.814Z,25.52
2018-07-09T11:37:46.914Z,25.50
2018-07-09T11:38:46.848Z,25.53
2018-07-09T11:39:46.868Z,25.47
2018-07-09T11:40:46.868Z,25.50
2018-07-09T11:41:46.877Z,25.52
2018-07-09T11:42:46.899Z,25.53
2018-07-09T11:43:46.903Z,25.56
2018-07-09T11:44:47.005Z,25.74
2018-07-09T11:45:46.950Z,25.82
2018-07-09T11:46:46.997Z,25.82
2018-07-09T11:47:46.915Z,25.77
2018-07-09T11:48:56.225Z,25.83
2018-07-09T11:50:40.349Z,25.99
2018-07-09T11:51:40.305Z,26.09
2018-07-09T11:52:40.318Z,26.01
2018-07-09T11:53:40.332Z,26.02
2018-07-09T11:54:40.346Z,26.06
2018-07-09T11:55:40.340Z,26.06
2018-07-09T11:56:40.343Z,26.02
2018-07-09T11:57:40.351Z,25.90
2018-07-09T11:58:40.402Z,25.90
2018-07-09T11:59:40.367Z,25.79
2018-07-09T12:00:40.384Z,25.80
2018-07-09T12:01:40.384Z,25.99
2018-07-09T12:02:40.390Z,26.24
2018-07-09T12:03:40.392Z,25.99
2018-07-09T12:04:40.451Z,25.89
2018-07-09T12:05:40.420Z,25.82
2018-07-09T12:06:40.416Z,25.98
2018-07-09T12:07:40.424Z,26.05
2018-07-09T12:08:40.433Z,26.24
2018-07-09T12:09:40.438Z,26.21
2018-07-09T12:10:40.452Z,26.12
2018-07-09T12:11:40.489Z,26.06
2018-07-09T12:12:40.522Z,26.21
2018-07-09T12:13:40.499Z,26.09
2018-07-09T12:14:40.486Z,26.02
2018-07-09T12:15:40.830Z,25.83
2018-07-09T12:16:40.583Z,25.86
2018-07-09T12:17:40.528Z,26.02
2018-07-09T12:18:40.511Z,25.99
2018-07-09T12:19:40.521Z,25.99
2018-07-09T12:20:40.580Z,26.12
2018-07-09T12:21:40.558Z,26.08
2018-07-09T12:22:40.565Z,26.02
2018-07-09T12:23:40.543Z,26.01
2018-07-09T12:24:40.550Z,26.44
2018-07-09T12:25:40.564Z,26.32
2018-07-09T12:26:40.572Z,26.59
2018-07-09T12:27:40.571Z,26.31
2018-07-09T12:28:40.579Z,26.29
2018-07-09T12:29:40.594Z,26.21
2018-07-09T12:30:40.593Z,26.20
2018-07-09T12:31:40.602Z,26.39
2018-07-09T12:32:40.615Z,26.50
2018-07-09T12:33:40.627Z,26.52
2018-07-09T12:34:40.626Z,26.32
2018-07-09T12:35:40.642Z,26.25
2018-07-09T12:36:40.643Z,26.39
2018-07-09T12:37:40.656Z,26.39
2018-07-09T12:38:40.652Z,26.20
2018-07-09T12:39:40.672Z,26.15
2018-07-09T12:40:40.683Z,25.99
2018-07-09T12:41:40.686Z,26.21
2018-07-09T12:42:40.692Z,26.04
2018-07-09T12:43:40.793Z,26.12
2018-07-09T12:44:40.717Z,26.20
2018-07-09T12:45:40.727Z,26.20
2018-07-09T12:46:40.724Z,26.42
2018-07-09T12:47:40.725Z,26.35
2018-07-09T12:48:40.739Z,26.40
2018-07-09T12:49:40.799Z,26.24
2018-07-09T12:50:40.745Z,26.21
2018-07-09T12:51:40.773Z,26.12
2018-07-09T12:52:40.769Z,26.22
2018-07-09T12:53:40.791Z,26.20
2018-07-09T12:54:40.785Z,26.17
2018-07-09T12:55:40.808Z,26.20
2018-07-09T12:56:40.793Z,26.20
2018-07-09T12:57:40.801Z,26.17
2018-07-09T12:58:40.803Z,26.42
2018-07-09T12:59:40.810Z,26.44
2018-07-09T13:00:40.831Z,26.57
2018-07-09T13:01:40.868Z,26.64
2018-07-09T13:02:40.916Z,26.74
2018-07-09T13:03:40.850Z,26.65
2018-07-09T13:04:40.903Z,26.57
2018-07-09T13:05:40.854Z,26.61
2018-07-09T13:06:40.907Z,26.76
2018-07-09T13:07:40.878Z,26.69
2018-07-09T13:08:40.879Z,26.37
2018-07-09T13:09:40.888Z,26.37
2018-07-09T13:10:40.898Z,26.42
2018-07-09T13:11:40.902Z,26.36
2018-07-09T13:12:40.915Z,26.39
2018-07-09T13:13:40.958Z,26.37
2018-07-09T13:14:40.930Z,26.44
2018-07-09T13:15:40.929Z,26.37
2018-07-09T13:16:40.944Z,26.62
2018-07-09T13:17:40.949Z,26.62
2018-07-09T13:18:40.967Z,26.86
2018-07-09T13:19:40.966Z,26.89
2018-07-09T13:20:40.973Z,26.65
2018-07-09T13:21:40.996Z,26.36
2018-07-09T13:22:41.032Z,26.37
2018-07-09T13:23:41.002Z,26.58
2018-07-09T13:24:41.002Z,26.55
2018-07-09T13:25:41.010Z,26.40